Aviation Digital Data Service (ADDS)

Output produced by METARs form (1747 UTC 24 June 2019)
found at http://www.aviationweather.gov/metar/data/
 
Forecast for: OTBD (DOHA INTL AIRPOR, QA)
Text: TAF OTBD 241706Z 2418/2524 33007KT CAVOK
Forecast period: 1800 UTC 24 June 2019 to 0800 UTC 25 June 2019
Forecast type: FROM: standard forecast or significant change
Winds: from the NNW (330 degrees) at 8 MPH (7 knots; 3.6 m/s)
Visibility: 6 or more miles 10+ km)
Ceiling: unknown
Clouds: missing
Weather: NSW  (no significant weather)
Text: TEMPO 2423/2505 27008KT
Forecast period: 2300 UTC 24 June 2019 to 0500 UTC 25 June 2019
Forecast type: TEMPORARY: The following changes expected for less than half the time period
Winds: from the W (270 degrees) at 9 MPH (8 knots; 4.1 m/s)
Visibility: missing
Ceiling: unknown
Clouds: missing
Weather: no significant weather forecast for this period
Text: BECMG 2508/2510 03012KT 8000 NSC
Forecast period: 0800 UTC 25 June 2019 to 0000 UTC 26 June 2019
Forecast type: BECOMING: Conditions expected to become as follows by 1000 UTC 25 June 2019
Winds: from the NNE (30 degrees) at 14 MPH (12 knots; 6.2 m/s)
Visibility: 5 miles (8 km)
Ceiling: unknown
Clouds: missing
Weather: NSW  (no significant weather)